sensor_id;sensor_type;location;lat;lon;timestamp;pressure;altitude;pressure_sealevel;temperature;humidity
29045;BME280;16133;49.486;12.176;2023-05-09T00:01:12;97839.53;;;10.75;96.76
29045;BME280;16133;49.486;12.176;2023-05-09T00:03:38;97845.00;;;10.73;95.83
29045;BME280;16133;49.486;12.176;2023-05-09T00:06:04;97843.72;;;10.69;96.52
29045;BME280;16133;49.486;12.176;2023-05-09T00:08:31;97842.03;;;10.68;96.88
29045;BME280;16133;49.486;12.176;2023-05-09T00:10:56;97841.38;;;10.66;97.51
29045;BME280;16133;49.486;12.176;2023-05-09T00:13:22;97848.50;;;10.66;97.35
29045;BME280;16133;49.486;12.176;2023-05-09T00:15:48;97844.84;;;10.67;91.08
29045;BME280;16133;49.486;12.176;2023-05-09T00:18:14;97839.03;;;10.71;87.67
29045;BME280;16133;49.486;12.176;2023-05-09T00:20:39;97838.69;;;10.74;86.17
29045;BME280;16133;49.486;12.176;2023-05-09T00:23:05;97842.88;;;10.77;84.83
29045;BME280;16133;49.486;12.176;2023-05-09T00:25:31;97832.41;;;10.75;84.46
29045;BME280;16133;49.486;12.176;2023-05-09T00:27:56;97839.38;;;10.76;84.78
29045;BME280;16133;49.486;12.176;2023-05-09T00:30:22;97834.06;;;10.76;83.17
29045;BME280;16133;49.486;12.176;2023-05-09T00:32:47;97830.59;;;10.76;83.02
29045;BME280;16133;49.486;12.176;2023-05-09T00:35:12;97832.41;;;10.75;82.02
29045;BME280;16133;49.486;12.176;2023-05-09T00:37:38;97834.22;;;10.75;81.21
29045;BME280;16133;49.486;12.176;2023-05-09T00:40:04;97823.78;;;10.73;80.53
29045;BME280;16133;49.486;12.176;2023-05-09T00:42:30;97827.78;;;10.69;80.52
29045;BME280;16133;49.486;12.176;2023-05-09T00:44:56;97822.78;;;10.66;81.12
29045;BME280;16133;49.486;12.176;2023-05-09T00:47:22;97820.34;;;10.65;80.46
29045;BME280;16133;49.486;12.176;2023-05-09T00:49:48;97812.88;;;10.60;79.84
29045;BME280;16133;49.486;12.176;2023-05-09T00:52:14;97821.81;;;10.59;80.54
29045;BME280;16133;49.486;12.176;2023-05-09T00:54:41;97816.88;;;10.56;80.02
29045;BME280;16133;49.486;12.176;2023-05-09T00:57:07;97817.22;;;10.53;81.21
29045;BME280;16133;49.486;12.176;2023-05-09T00:59:32;97820.38;;;10.48;83.09
29045;BME280;16133;49.486;12.176;2023-05-09T01:01:58;97815.22;;;10.39;85.49
29045;BME280;16133;49.486;12.176;2023-05-09T01:04:23;97818.22;;;10.36;86.73
29045;BME280;16133;49.486;12.176;2023-05-09T01:09:54;97810.47;;;10.26;88.12
29045;BME280;16133;49.486;12.176;2023-05-09T01:12:54;97816.41;;;10.28;82.93
29045;BME280;16133;49.486;12.176;2023-05-09T01:15:23;97815.28;;;10.23;82.33
29045;BME280;16133;49.486;12.176;2023-05-09T01:17:58;97807.47;;;10.21;81.31
29045;BME280;16133;49.486;12.176;2023-05-09T01:31:57;97813.25;;;10.08;78.07
29045;BME280;16133;49.486;12.176;2023-05-09T01:34:26;97804.16;;;10.03;78.25
29045;BME280;16133;49.486;12.176;2023-05-09T01:36:58;97812.94;;;10.03;79.08
29045;BME280;16133;49.486;12.176;2023-05-09T01:39:26;97810.44;;;10.02;79.30
29045;BME280;16133;49.486;12.176;2023-05-09T01:41:53;97810.78;;;9.99;78.34
29045;BME280;16133;49.486;12.176;2023-05-09T01:44:20;97810.09;;;9.97;78.33
29045;BME280;16133;49.486;12.176;2023-05-09T01:46:48;97805.13;;;9.94;78.63
29045;BME280;16133;49.486;12.176;2023-05-09T01:49:16;97803.47;;;9.93;78.70
29045;BME280;16133;49.486;12.176;2023-05-09T01:51:42;97803.81;;;9.90;79.77
29045;BME280;16133;49.486;12.176;2023-05-09T01:54:09;97798.00;;;9.86;79.31
29045;BME280;16133;49.486;12.176;2023-05-09T01:56:36;97802.81;;;9.83;78.91
29045;BME280;16133;49.486;12.176;2023-05-09T01:59:04;97796.19;;;9.79;79.59
29045;BME280;16133;49.486;12.176;2023-05-09T02:01:31;97807.13;;;9.76;79.43
29045;BME280;16133;49.486;12.176;2023-05-09T02:03:57;97799.66;;;9.71;79.83
29045;BME280;16133;49.486;12.176;2023-05-09T02:06:23;97800.00;;;9.68;79.98
29045;BME280;16133;49.486;12.176;2023-05-09T02:08:49;97799.00;;;9.61;80.14
29045;BME280;16133;49.486;12.176;2023-05-09T02:11:15;97790.38;;;9.59;79.07
29045;BME280;16133;49.486;12.176;2023-05-09T02:13:40;97786.56;;;9.53;79.68
29045;BME280;16133;49.486;12.176;2023-05-09T02:16:06;97787.19;;;9.47;79.36
29045;BME280;16133;49.486;12.176;2023-05-09T02:18:32;97785.56;;;9.46;78.70
29045;BME280;16133;49.486;12.176;2023-05-09T02:20:59;97784.25;;;9.42;78.53
29045;BME280;16133;49.486;12.176;2023-05-09T02:23:24;97784.53;;;9.39;79.02
29045;BME280;16133;49.486;12.176;2023-05-09T02:25:50;97793.28;;;9.32;78.66
29045;BME280;16133;49.486;12.176;2023-05-09T02:28:20;97795.63;;;9.27;79.59
29045;BME280;16133;49.486;12.176;2023-05-09T02:30:48;97793.28;;;9.16;79.47
29045;BME280;16133;49.486;12.176;2023-05-09T02:33:15;97792.44;;;9.15;79.29
29045;BME280;16133;49.486;12.176;2023-05-09T02:35:43;97793.22;;;8.99;80.20
29045;BME280;16133;49.486;12.176;2023-05-09T02:38:08;97786.22;;;8.90;80.71
29045;BME280;16133;49.486;12.176;2023-05-09T02:40:34;97793.84;;;8.85;81.00
29045;BME280;16133;49.486;12.176;2023-05-09T02:43:00;97794.09;;;8.74;80.90
29045;BME280;16133;49.486;12.176;2023-05-09T02:45:26;97785.66;;;8.71;80.64
29045;BME280;16133;49.486;12.176;2023-05-09T02:47:51;97789.81;;;8.73;81.00
29045;BME280;16133;49.486;12.176;2023-05-09T02:50:17;97786.41;;;8.55;81.62
29045;BME280;16133;49.486;12.176;2023-05-09T02:52:42;97782.38;;;8.43;82.17
29045;BME280;16133;49.486;12.176;2023-05-09T02:55:08;97784.47;;;8.31;82.96
29045;BME280;16133;49.486;12.176;2023-05-09T02:57:34;97786.03;;;8.24;83.00
29045;BME280;16133;49.486;12.176;2023-05-09T03:00:00;97793.53;;;8.29;82.78
29045;BME280;16133;49.486;12.176;2023-05-09T03:02:25;97782.28;;;8.09;83.31
29045;BME280;16133;49.486;12.176;2023-05-09T03:04:51;97785.69;;;8.01;84.18
29045;BME280;16133;49.486;12.176;2023-05-09T03:07:16;97781.19;;;7.94;84.75
29045;BME280;16133;49.486;12.176;2023-05-09T03:09:41;97787.56;;;7.83;85.71
29045;BME280;16133;49.486;12.176;2023-05-09T03:12:07;97786.50;;;7.76;85.71
29045;BME280;16133;49.486;12.176;2023-05-09T03:14:32;97780.78;;;7.63;86.57
29045;BME280;16133;49.486;12.176;2023-05-09T03:16:58;97779.41;;;7.59;86.35
29045;BME280;16133;49.486;12.176;2023-05-09T03:19:23;97777.25;;;7.54;86.53
29045;BME280;16133;49.486;12.176;2023-05-09T03:21:49;97775.97;;;7.41;87.41
29045;BME280;16133;49.486;12.176;2023-05-09T03:24:15;97776.28;;;7.38;87.85
29045;BME280;16133;49.486;12.176;2023-05-09T03:26:40;97776.28;;;7.38;88.40
29045;BME280;16133;49.486;12.176;2023-05-09T03:29:05;97777.69;;;7.32;88.07
29045;BME280;16133;49.486;12.176;2023-05-09T03:31:31;97775.22;;;7.31;88.08
29045;BME280;16133;49.486;12.176;2023-05-09T03:33:56;97776.50;;;7.27;88.57
29045;BME280;16133;49.486;12.176;2023-05-09T03:36:22;97772.88;;;7.28;88.20
29045;BME280;16133;49.486;12.176;2023-05-09T03:38:47;97772.09;;;7.17;88.70
29045;BME280;16133;49.486;12.176;2023-05-09T03:41:16;97774.38;;;7.12;89.26
29045;BME280;16133;49.486;12.176;2023-05-09T03:43:42;97773.28;;;7.05;89.26
29045;BME280;16133;49.486;12.176;2023-05-09T03:46:08;97765.59;;;6.94;89.53
29045;BME280;16133;49.486;12.176;2023-05-09T03:48:34;97774.19;;;6.96;90.68
29045;BME280;16133;49.486;12.176;2023-05-09T03:50:59;97769.59;;;6.98;90.75
29045;BME280;16133;49.486;12.176;2023-05-09T03:53:24;97775.47;;;6.92;90.77
29045;BME280;16133;49.486;12.176;2023-05-09T03:55:50;97772.44;;;6.87;91.01
29045;BME280;16133;49.486;12.176;2023-05-09T03:58:15;97771.38;;;6.80;92.37
29045;BME280;16133;49.486;12.176;2023-05-09T04:00:43;97773.47;;;6.77;92.72
29045;BME280;16133;49.486;12.176;2023-05-09T04:03:08;97771.81;;;6.76;93.13
29045;BME280;16133;49.486;12.176;2023-05-09T04:05:34;97769.47;;;6.72;92.58
29045;BME280;16133;49.486;12.176;2023-05-09T04:07:59;97774.97;;;6.79;92.45
29045;BME280;16133;49.486;12.176;2023-05-09T04:10:25;97776.78;;;6.79;92.32
29045;BME280;16133;49.486;12.176;2023-05-09T04:12:50;97769.25;;;6.84;91.58
29045;BME280;16133;49.486;12.176;2023-05-09T04:15:16;97768.13;;;6.86;91.79
29045;BME280;16133;49.486;12.176;2023-05-09T04:17:41;97766.31;;;6.87;91.67
29045;BME280;16133;49.486;12.176;2023-05-09T04:20:08;97770.50;;;6.89;92.13
29045;BME280;16133;49.486;12.176;2023-05-09T04:22:34;97768.53;;;6.91;92.37
29045;BME280;16133;49.486;12.176;2023-05-09T04:25:00;97775.41;;;7.02;91.53
29045;BME280;16133;49.486;12.176;2023-05-09T04:27:26;97770.66;;;7.05;91.30
29045;BME280;16133;49.486;12.176;2023-05-09T04:29:52;97762.16;;;7.11;90.70
29045;BME280;16133;49.486;12.176;2023-05-09T04:32:17;97771.97;;;7.19;90.93
29045;BME280;16133;49.486;12.176;2023-05-09T04:34:45;97778.59;;;7.23;90.39
29045;BME280;16133;49.486;12.176;2023-05-09T04:37:10;97780.19;;;7.34;90.19
29045;BME280;16133;49.486;12.176;2023-05-09T04:39:37;97778.00;;;7.47;89.90
29045;BME280;16133;49.486;12.176;2023-05-09T04:42:03;97777.16;;;7.64;88.98
29045;BME280;16133;49.486;12.176;2023-05-09T04:44:28;97781.13;;;7.86;88.73
29045;BME280;16133;49.486;12.176;2023-05-09T04:46:54;97770.16;;;7.98;88.03
29045;BME280;16133;49.486;12.176;2023-05-09T04:49:19;97770.25;;;8.32;84.87
29045;BME280;16133;49.486;12.176;2023-05-09T04:51:45;97777.97;;;8.85;82.85
29045;BME280;16133;49.486;12.176;2023-05-09T04:54:10;97767.19;;;9.61;80.00
29045;BME280;16133;49.486;12.176;2023-05-09T04:56:36;97780.53;;;10.65;75.14
29045;BME280;16133;49.486;12.176;2023-05-09T04:59:01;97779.31;;;11.45;69.54
29045;BME280;16133;49.486;12.176;2023-05-09T05:01:26;97779.16;;;12.29;66.00
29045;BME280;16133;49.486;12.176;2023-05-09T05:03:52;97775.50;;;13.18;63.96
29045;BME280;16133;49.486;12.176;2023-05-09T05:06:17;97769.50;;;14.37;60.39
29045;BME280;16133;49.486;12.176;2023-05-09T05:08:42;97770.94;;;15.56;57.00
29045;BME280;16133;49.486;12.176;2023-05-09T05:11:09;97761.53;;;16.32;51.73
29045;BME280;16133;49.486;12.176;2023-05-09T05:13:34;97762.47;;;16.84;49.30
29045;BME280;16133;49.486;12.176;2023-05-09T05:15:59;97760.25;;;17.25;49.32
29045;BME280;16133;49.486;12.176;2023-05-09T05:18:25;97755.00;;;17.50;46.91
29045;BME280;16133;49.486;12.176;2023-05-09T05:20:50;97759.34;;;17.89;45.90
29045;BME280;16133;49.486;12.176;2023-05-09T05:23:15;97749.75;;;17.68;46.10
29045;BME280;16133;49.486;12.176;2023-05-09T05:25:42;97759.91;;;18.22;44.94
29045;BME280;16133;49.486;12.176;2023-05-09T05:28:07;97754.06;;;18.50;44.03
29045;BME280;16133;49.486;12.176;2023-05-09T05:30:33;97759.59;;;18.61;44.16
29045;BME280;16133;49.486;12.176;2023-05-09T05:32:58;97758.97;;;18.59;43.05
29045;BME280;16133;49.486;12.176;2023-05-09T05:35:23;97759.97;;;18.65;42.84
29045;BME280;16133;49.486;12.176;2023-05-09T05:37:49;97754.13;;;18.68;43.15
29045;BME280;16133;49.486;12.176;2023-05-09T05:40:14;97746.53;;;19.20;42.53
29045;BME280;16133;49.486;12.176;2023-05-09T05:42:40;97747.53;;;19.37;41.90
29045;BME280;16133;49.486;12.176;2023-05-09T05:45:06;97742.16;;;19.37;41.16
29045;BME280;16133;49.486;12.176;2023-05-09T05:47:35;97746.22;;;19.46;41.29
29045;BME280;16133;49.486;12.176;2023-05-09T05:50:05;97751.34;;;19.29;41.25
29045;BME280;16133;49.486;12.176;2023-05-09T05:52:39;97740.56;;;18.99;41.84
29045;BME280;16133;49.486;12.176;2023-05-09T05:55:06;97745.09;;;18.99;42.12
29045;BME280;16133;49.486;12.176;2023-05-09T05:57:32;97742.50;;;19.10;41.01
29045;BME280;16133;49.486;12.176;2023-05-09T05:59:58;97736.91;;;18.51;41.54
29045;BME280;16133;49.486;12.176;2023-05-09T06:02:24;97742.25;;;18.08;43.02
29045;BME280;16133;49.486;12.176;2023-05-09T06:04:49;97735.16;;;17.89;43.74
29045;BME280;16133;49.486;12.176;2023-05-09T06:07:15;97740.16;;;17.47;44.03
29045;BME280;16133;49.486;12.176;2023-05-09T06:09:40;97740.91;;;17.23;43.77
29045;BME280;16133;49.486;12.176;2023-05-09T06:12:05;97727.69;;;16.51;45.37
29045;BME280;16133;49.486;12.176;2023-05-09T06:14:31;97735.56;;;15.73;47.31
29045;BME280;16133;49.486;12.176;2023-05-09T06:16:57;97733.66;;;14.94;49.61
29045;BME280;16133;49.486;12.176;2023-05-09T06:19:22;97727.50;;;14.31;51.71
29045;BME280;16133;49.486;12.176;2023-05-09T06:21:48;97727.69;;;13.95;52.58
29045;BME280;16133;49.486;12.176;2023-05-09T06:24:13;97724.44;;;13.57;53.66
29045;BME280;16133;49.486;12.176;2023-05-09T06:26:38;97726.84;;;13.31;53.67
29045;BME280;16133;49.486;12.176;2023-05-09T06:29:04;97724.22;;;13.02;55.31
29045;BME280;16133;49.486;12.176;2023-05-09T06:31:30;97719.00;;;12.93;55.80
29045;BME280;16133;49.486;12.176;2023-05-09T06:33:56;97715.34;;;12.94;56.77
29045;BME280;16133;49.486;12.176;2023-05-09T06:36:21;97717.63;;;12.98;56.35
29045;BME280;16133;49.486;12.176;2023-05-09T06:38:47;97710.34;;;13.06;56.61
29045;BME280;16133;49.486;12.176;2023-05-09T06:41:12;97715.00;;;13.19;55.42
29045;BME280;16133;49.486;12.176;2023-05-09T06:43:37;97699.84;;;13.19;56.71
29045;BME280;16133;49.486;12.176;2023-05-09T06:46:03;97701.34;;;13.22;56.18
29045;BME280;16133;49.486;12.176;2023-05-09T06:48:28;97700.63;;;13.13;55.59
29045;BME280;16133;49.486;12.176;2023-05-09T06:50:53;97691.06;;;13.04;56.73
29045;BME280;16133;49.486;12.176;2023-05-09T06:53:19;97692.44;;;13.15;55.47
29045;BME280;16133;49.486;12.176;2023-05-09T06:55:44;97683.31;;;13.24;55.75
29045;BME280;16133;49.486;12.176;2023-05-09T06:58:10;97679.06;;;13.29;55.71
29045;BME280;16133;49.486;12.176;2023-05-09T07:00:36;97679.00;;;13.44;55.04
29045;BME280;16133;49.486;12.176;2023-05-09T07:03:01;97671.50;;;13.54;53.83
29045;BME280;16133;49.486;12.176;2023-05-09T07:05:27;97678.75;;;13.60;55.39
29045;BME280;16133;49.486;12.176;2023-05-09T07:07:52;97675.75;;;13.70;54.74
29045;BME280;16133;49.486;12.176;2023-05-09T07:10:19;97674.25;;;13.88;53.74
29045;BME280;16133;49.486;12.176;2023-05-09T07:12:46;97667.19;;;14.02;53.36
29045;BME280;16133;49.486;12.176;2023-05-09T07:15:11;97668.22;;;14.08;53.31
29045;BME280;16133;49.486;12.176;2023-05-09T07:17:37;97666.13;;;14.03;52.17
29045;BME280;16133;49.486;12.176;2023-05-09T07:20:04;97655.13;;;14.13;52.53
29045;BME280;16133;49.486;12.176;2023-05-09T07:22:30;97656.44;;;14.23;53.17
29045;BME280;16133;49.486;12.176;2023-05-09T07:24:55;97657.09;;;14.32;52.53
29045;BME280;16133;49.486;12.176;2023-05-09T07:27:20;97654.47;;;14.39;50.97
29045;BME280;16133;49.486;12.176;2023-05-09T07:29:46;97645.88;;;14.43;51.04
29045;BME280;16133;49.486;12.176;2023-05-09T07:32:13;97645.91;;;14.50;51.62
29045;BME280;16133;49.486;12.176;2023-05-09T07:34:38;97643.31;;;14.69;51.96
29045;BME280;16133;49.486;12.176;2023-05-09T07:37:04;97639.72;;;14.90;52.77
29045;BME280;16133;49.486;12.176;2023-05-09T07:39:29;97638.72;;;15.11;52.39
29045;BME280;16133;49.486;12.176;2023-05-09T07:41:54;97629.69;;;15.18;50.30
29045;BME280;16133;49.486;12.176;2023-05-09T07:44:20;97617.16;;;15.25;50.38
29045;BME280;16133;49.486;12.176;2023-05-09T07:46:45;97623.34;;;15.39;50.51
29045;BME280;16133;49.486;12.176;2023-05-09T07:49:10;97613.50;;;15.53;49.68
29045;BME280;16133;49.486;12.176;2023-05-09T07:51:36;97607.13;;;15.60;47.64
29045;BME280;16133;49.486;12.176;2023-05-09T07:54:01;97605.09;;;15.62;43.92
29045;BME280;16133;49.486;12.176;2023-05-09T07:56:27;97601.16;;;15.65;44.81
29045;BME280;16133;49.486;12.176;2023-05-09T07:58:52;97597.84;;;15.76;45.81
29045;BME280;16133;49.486;12.176;2023-05-09T08:01:17;97592.72;;;15.81;44.36
29045;BME280;16133;49.486;12.176;2023-05-09T08:03:43;97598.47;;;15.85;43.58
29045;BME280;16133;49.486;12.176;2023-05-09T08:06:08;97585.72;;;15.80;43.95
29045;BME280;16133;49.486;12.176;2023-05-09T08:08:34;97592.69;;;15.88;45.37
29045;BME280;16133;49.486;12.176;2023-05-09T08:10:59;97593.34;;;15.70;43.70
29045;BME280;16133;49.486;12.176;2023-05-09T08:13:24;97585.72;;;15.73;44.25
29045;BME280;16133;49.486;12.176;2023-05-09T08:15:50;97585.31;;;15.76;45.35
29045;BME280;16133;49.486;12.176;2023-05-09T08:18:15;97582.44;;;15.78;43.19
29045;BME280;16133;49.486;12.176;2023-05-09T08:20:41;97582.84;;;15.62;43.69
29045;BME280;16133;49.486;12.176;2023-05-09T08:23:06;97569.69;;;15.73;42.99
29045;BME280;16133;49.486;12.176;2023-05-09T08:25:35;97573.38;;;15.86;43.49
29045;BME280;16133;49.486;12.176;2023-05-09T08:28:00;97568.00;;;15.92;44.75
29045;BME280;16133;49.486;12.176;2023-05-09T08:30:25;97566.34;;;15.98;43.96
29045;BME280;16133;49.486;12.176;2023-05-09T08:32:53;97559.94;;;15.99;43.18
29045;BME280;16133;49.486;12.176;2023-05-09T08:35:19;97563.44;;;16.06;43.45
29045;BME280;16133;49.486;12.176;2023-05-09T08:37:44;97559.53;;;16.02;43.29
29045;BME280;16133;49.486;12.176;2023-05-09T08:40:12;97563.44;;;16.06;42.47
29045;BME280;16133;49.486;12.176;2023-05-09T08:42:37;97554.75;;;16.10;42.40
29045;BME280;16133;49.486;12.176;2023-05-09T08:45:09;97550.47;;;16.09;42.11
29045;BME280;16133;49.486;12.176;2023-05-09T08:47:36;97540.97;;;16.13;42.63
29045;BME280;16133;49.486;12.176;2023-05-09T08:50:03;97544.47;;;16.07;42.33
29045;BME280;16133;49.486;12.176;2023-05-09T08:52:32;97536.22;;;16.15;42.51
29045;BME280;16133;49.486;12.176;2023-05-09T08:54:58;97545.28;;;16.14;41.77
29045;BME280;16133;49.486;12.176;2023-05-09T08:57:25;97532.47;;;16.23;42.55
29045;BME280;16133;49.486;12.176;2023-05-09T08:59:51;97535.41;;;16.15;40.27
29045;BME280;16133;49.486;12.176;2023-05-09T09:02:17;97534.97;;;16.24;40.38
29045;BME280;16133;49.486;12.176;2023-05-09T09:04:43;97531.66;;;16.22;39.36
29045;BME280;16133;49.486;12.176;2023-05-09T09:07:10;97532.06;;;16.26;40.60
29045;BME280;16133;49.486;12.176;2023-05-09T09:09:36;97525.72;;;16.20;40.31
29045;BME280;16133;49.486;12.176;2023-05-09T09:12:05;97521.53;;;16.31;39.79
29045;BME280;16133;49.486;12.176;2023-05-09T09:14:37;97523.44;;;16.24;38.95
29045;BME280;16133;49.486;12.176;2023-05-09T09:17:04;97518.91;;;16.24;38.83
29045;BME280;16133;49.486;12.176;2023-05-09T09:19:33;97513.94;;;16.28;39.73
29045;BME280;16133;49.486;12.176;2023-05-09T09:22:01;97518.47;;;16.27;37.73
29045;BME280;16133;49.486;12.176;2023-05-09T09:24:28;97515.00;;;16.20;37.46
29045;BME280;16133;49.486;12.176;2023-05-09T09:26:54;97512.94;;;16.16;37.87
29045;BME280;16133;49.486;12.176;2023-05-09T09:29:20;97504.25;;;16.27;38.94
29045;BME280;16133;49.486;12.176;2023-05-09T09:31:51;97507.38;;;16.24;36.92
29045;BME280;16133;49.486;12.176;2023-05-09T09:34:21;97499.09;;;16.25;38.40
29045;BME280;16133;49.486;12.176;2023-05-09T09:36:47;97504.44;;;16.25;36.56
29045;BME280;16133;49.486;12.176;2023-05-09T09:39:14;97491.88;;;16.26;38.23
29045;BME280;16133;49.486;12.176;2023-05-09T09:41:40;97497.25;;;16.33;39.30
29045;BME280;16133;49.486;12.176;2023-05-09T09:44:10;97485.75;;;16.19;39.71
29045;BME280;16133;49.486;12.176;2023-05-09T09:47:02;97498.34;;;16.12;41.81
29045;BME280;16133;49.486;12.176;2023-05-09T09:49:27;97486.00;;;16.11;43.19
29045;BME280;16133;49.486;12.176;2023-05-09T09:51:55;97482.88;;;16.14;43.04
29045;BME280;16133;49.486;12.176;2023-05-09T09:54:21;97485.16;;;16.17;42.76
29045;BME280;16133;49.486;12.176;2023-05-09T09:56:50;97480.41;;;16.19;42.92
29045;BME280;16133;49.486;12.176;2023-05-09T09:59:20;97468.66;;;16.20;41.98
29045;BME280;16133;49.486;12.176;2023-05-09T10:02:05;97466.13;;;16.32;43.97
29045;BME280;16133;49.486;12.176;2023-05-09T10:04:37;97460.72;;;16.38;44.39
29045;BME280;16133;49.486;12.176;2023-05-09T10:07:07;97447.97;;;16.40;42.78
29045;BME280;16133;49.486;12.176;2023-05-09T10:09:35;97444.22;;;16.41;44.34
29045;BME280;16133;49.486;12.176;2023-05-09T10:12:06;97443.25;;;16.36;45.18
29045;BME280;16133;49.486;12.176;2023-05-09T10:14:34;97443.84;;;16.38;43.55
29045;BME280;16133;49.486;12.176;2023-05-09T10:17:03;97442.75;;;16.45;42.98
29045;BME280;16133;49.486;12.176;2023-05-09T10:19:30;97432.88;;;16.46;44.37
29045;BME280;16133;49.486;12.176;2023-05-09T10:22:04;97428.94;;;16.48;43.74
29045;BME280;16133;49.486;12.176;2023-05-09T10:24:39;97422.31;;;16.57;45.30
29045;BME280;16133;49.486;12.176;2023-05-09T10:27:11;97416.91;;;16.64;42.79
29045;BME280;16133;49.486;12.176;2023-05-09T10:29:40;97421.13;;;16.78;42.29
29045;BME280;16133;49.486;12.176;2023-05-09T10:32:17;97416.88;;;16.70;38.16
29045;BME280;16133;49.486;12.176;2023-05-09T10:34:50;97416.50;;;16.67;40.83
29045;BME280;16133;49.486;12.176;2023-05-09T10:37:20;97414.91;;;16.59;41.86
29045;BME280;16133;49.486;12.176;2023-05-09T10:39:49;97404.06;;;16.72;44.66
29045;BME280;16133;49.486;12.176;2023-05-09T10:42:19;97404.25;;;16.78;43.81
29045;BME280;16133;49.486;12.176;2023-05-09T10:44:48;97391.59;;;16.85;44.36
29045;BME280;16133;49.486;12.176;2023-05-09T10:47:16;97393.19;;;16.92;45.59
29045;BME280;16133;49.486;12.176;2023-05-09T10:49:49;97383.03;;;16.94;45.01
29045;BME280;16133;49.486;12.176;2023-05-09T10:52:14;97387.72;;;17.05;46.97
29045;BME280;16133;49.486;12.176;2023-05-09T10:54:40;97384.06;;;17.18;43.86
29045;BME280;16133;49.486;12.176;2023-05-09T10:57:09;97381.81;;;17.15;42.88
29045;BME280;16133;49.486;12.176;2023-05-09T10:59:40;97376.09;;;17.11;43.47
29045;BME280;16133;49.486;12.176;2023-05-09T11:02:13;97368.63;;;17.13;44.28
29045;BME280;16133;49.486;12.176;2023-05-09T11:04:40;97369.03;;;17.17;44.39
29045;BME280;16133;49.486;12.176;2023-05-09T11:07:25;97358.69;;;17.20;46.74
29045;BME280;16133;49.486;12.176;2023-05-09T11:10:16;97353.06;;;17.22;45.36
29045;BME280;16133;49.486;12.176;2023-05-09T11:12:56;97342.97;;;17.24;46.04
29045;BME280;16133;49.486;12.176;2023-05-09T11:15:25;97340.34;;;17.36;44.35
29045;BME280;16133;49.486;12.176;2023-05-09T11:18:10;97339.25;;;17.43;44.39
29045;BME280;16133;49.486;12.176;2023-05-09T11:20:42;97335.28;;;17.46;43.22
29045;BME280;16133;49.486;12.176;2023-05-09T11:23:08;97321.03;;;17.45;43.69
29045;BME280;16133;49.486;12.176;2023-05-09T11:25:38;97320.84;;;17.47;40.36
29045;BME280;16133;49.486;12.176;2023-05-09T11:28:04;97320.47;;;17.43;39.94
29045;BME280;16133;49.486;12.176;2023-05-09T11:30:37;97319.91;;;17.53;41.40
29045;BME280;16133;49.486;12.176;2023-05-09T11:33:03;97313.31;;;17.55;42.64
29045;BME280;16133;49.486;12.176;2023-05-09T11:35:31;97313.31;;;17.55;40.70
29045;BME280;16133;49.486;12.176;2023-05-09T11:40:26;97318.88;;;17.72;44.05
29045;BME280;16133;49.486;12.176;2023-05-09T11:42:54;97306.94;;;17.68;42.59
29045;BME280;16133;49.486;12.176;2023-05-09T11:45:23;97302.88;;;17.65;41.89
29045;BME280;16133;49.486;12.176;2023-05-09T11:47:50;97296.78;;;17.58;40.19
29045;BME280;16133;49.486;12.176;2023-05-09T11:50:17;97290.94;;;17.61;41.52
29045;BME280;16133;49.486;12.176;2023-05-09T11:52:44;97287.22;;;17.62;40.38
29045;BME280;16133;49.486;12.176;2023-05-09T11:55:11;97280.13;;;17.68;41.47
29045;BME280;16133;49.486;12.176;2023-05-09T11:57:43;97279.22;;;17.74;43.64
29045;BME280;16133;49.486;12.176;2023-05-09T12:00:09;97264.19;;;17.85;42.29
29045;BME280;16133;49.486;12.176;2023-05-09T12:02:35;97265.84;;;17.86;42.25
29045;BME280;16133;49.486;12.176;2023-05-09T12:05:12;97258.16;;;17.89;42.09
29045;BME280;16133;49.486;12.176;2023-05-09T12:07:38;97248.25;;;17.90;40.28
29045;BME280;16133;49.486;12.176;2023-05-09T12:10:09;97238.66;;;17.82;40.44
29045;BME280;16133;49.486;12.176;2023-05-09T12:12:45;97241.59;;;17.92;42.38
29045;BME280;16133;49.486;12.176;2023-05-09T12:15:11;97244.28;;;18.04;42.39
29045;BME280;16133;49.486;12.176;2023-05-09T12:17:37;97230.03;;;18.03;40.49
29045;BME280;16133;49.486;12.176;2023-05-09T12:20:04;97231.81;;;18.21;40.18
29045;BME280;16133;49.486;12.176;2023-05-09T12:22:33;97217.00;;;18.19;39.96
29045;BME280;16133;49.486;12.176;2023-05-09T12:25:01;97217.22;;;18.29;42.54
29045;BME280;16133;49.486;12.176;2023-05-09T12:27:31;97211.16;;;18.33;41.84
29045;BME280;16133;49.486;12.176;2023-05-09T12:29:59;97212.19;;;18.32;40.94
29045;BME280;16133;49.486;12.176;2023-05-09T12:32:25;97206.47;;;18.40;41.01
29045;BME280;16133;49.486;12.176;2023-05-09T12:34:56;97196.81;;;18.63;39.35
29045;BME280;16133;49.486;12.176;2023-05-09T12:37:21;97201.25;;;18.57;40.34
29045;BME280;16133;49.486;12.176;2023-05-09T12:42:30;97187.69;;;18.52;39.04
29045;BME280;16133;49.486;12.176;2023-05-09T12:44:55;97190.00;;;18.48;40.67
29045;BME280;16133;49.486;12.176;2023-05-09T12:47:21;97189.34;;;18.53;39.98
29045;BME280;16133;49.486;12.176;2023-05-09T12:49:49;97189.22;;;18.59;40.39
29045;BME280;16133;49.486;12.176;2023-05-09T12:52:19;97184.63;;;18.72;39.83
29045;BME280;16133;49.486;12.176;2023-05-09T12:54:47;97184.97;;;18.75;38.58
29045;BME280;16133;49.486;12.176;2023-05-09T12:57:24;97173.31;;;18.81;40.12
29045;BME280;16133;49.486;12.176;2023-05-09T12:59:57;97158.56;;;18.84;38.77
29045;BME280;16133;49.486;12.176;2023-05-09T13:02:24;97157.25;;;18.86;40.97
29045;BME280;16133;49.486;12.176;2023-05-09T13:05:10;97162.75;;;18.91;40.41
29045;BME280;16133;49.486;12.176;2023-05-09T13:10:19;97142.19;;;18.85;40.11
29045;BME280;16133;49.486;12.176;2023-05-09T13:12:48;97141.47;;;18.90;40.38
29045;BME280;16133;49.486;12.176;2023-05-09T13:15:14;97143.22;;;18.96;38.66